sensor_id;sensor_type;location;lat;lon;timestamp;P1;durP1;ratioP1;P2;durP2;ratioP2
69334;SDS011;56477;52.742;15.242;2022-07-29T00:02:00;5.67;;;2.40;;
69334;SDS011;56477;52.742;15.242;2022-07-29T00:04:25;8.82;;;3.15;;
69334;SDS011;56477;52.742;15.242;2022-07-29T00:06:52;6.32;;;2.40;;
69334;SDS011;56477;52.742;15.242;2022-07-29T00:09:17;6.35;;;2.97;;
69334;SDS011;56477;52.742;15.242;2022-07-29T00:11:43;5.93;;;2.63;;
69334;SDS011;56477;52.742;15.242;2022-07-29T00:14:09;5.70;;;2.70;;
69334;SDS011;56477;52.742;15.242;2022-07-29T00:16:35;5.25;;;2.55;;
69334;SDS011;56477;52.742;15.242;2022-07-29T00:19:01;5.03;;;2.53;;
69334;SDS011;56477;52.742;15.242;2022-07-29T00:21:27;7.07;;;2.83;;
69334;SDS011;56477;52.742;15.242;2022-07-29T00:23:53;7.25;;;2.70;;
69334;SDS011;56477;52.742;15.242;2022-07-29T00:26:19;5.97;;;2.83;;
69334;SDS011;56477;52.742;15.242;2022-07-29T00:28:45;5.45;;;2.53;;
69334;SDS011;56477;52.742;15.242;2022-07-29T00:31:11;5.32;;;2.33;;
69334;SDS011;56477;52.742;15.242;2022-07-29T00:33:36;5.73;;;2.57;;
69334;SDS011;56477;52.742;15.242;2022-07-29T00:36:03;8.15;;;2.35;;
69334;SDS011;56477;52.742;15.242;2022-07-29T00:38:29;6.20;;;2.50;;
69334;SDS011;56477;52.742;15.242;2022-07-29T00:40:54;8.80;;;4.50;;
69334;SDS011;56477;52.742;15.242;2022-07-29T00:43:20;6.60;;;2.13;;
69334;SDS011;56477;52.742;15.242;2022-07-29T00:45:46;5.80;;;2.15;;
69334;SDS011;56477;52.742;15.242;2022-07-29T00:48:12;5.85;;;2.42;;
69334;SDS011;56477;52.742;15.242;2022-07-29T00:50:38;5.80;;;2.33;;
69334;SDS011;56477;52.742;15.242;2022-07-29T00:53:05;5.53;;;2.13;;
69334;SDS011;56477;52.742;15.242;2022-07-29T00:55:32;5.20;;;2.20;;
69334;SDS011;56477;52.742;15.242;2022-07-29T00:57:58;7.25;;;2.30;;
69334;SDS011;56477;52.742;15.242;2022-07-29T01:00:25;8.88;;;2.50;;
69334;SDS011;56477;52.742;15.242;2022-07-29T01:02:52;7.83;;;2.13;;
69334;SDS011;56477;52.742;15.242;2022-07-29T01:05:22;4.15;;;2.17;;
69334;SDS011;56477;52.742;15.242;2022-07-29T01:07:51;6.68;;;2.03;;
69334;SDS011;56477;52.742;15.242;2022-07-29T01:10:19;6.60;;;2.67;;
69334;SDS011;56477;52.742;15.242;2022-07-29T01:12:47;6.63;;;2.40;;
69334;SDS011;56477;52.742;15.242;2022-07-29T01:15:16;8.27;;;2.20;;
69334;SDS011;56477;52.742;15.242;2022-07-29T01:17:44;5.53;;;2.05;;
69334;SDS011;56477;52.742;15.242;2022-07-29T01:23:19;6.70;;;2.10;;
69334;SDS011;56477;52.742;15.242;2022-07-29T01:31:41;5.25;;;2.50;;
69334;SDS011;56477;52.742;15.242;2022-07-29T01:34:11;7.53;;;2.50;;
69334;SDS011;56477;52.742;15.242;2022-07-29T01:37:08;5.60;;;2.58;;
69334;SDS011;56477;52.742;15.242;2022-07-29T01:39:46;5.97;;;2.65;;
69334;SDS011;56477;52.742;15.242;2022-07-29T01:45:13;6.80;;;2.42;;
69334;SDS011;56477;52.742;15.242;2022-07-29T01:47:44;6.50;;;2.63;;
69334;SDS011;56477;52.742;15.242;2022-07-29T01:50:16;6.63;;;2.58;;
69334;SDS011;56477;52.742;15.242;2022-07-29T01:52:49;5.20;;;2.13;;
69334;SDS011;56477;52.742;15.242;2022-07-29T01:55:20;6.57;;;2.20;;
69334;SDS011;56477;52.742;15.242;2022-07-29T01:57:50;6.25;;;2.60;;
69334;SDS011;56477;52.742;15.242;2022-07-29T02:00:16;6.25;;;2.90;;
69334;SDS011;56477;52.742;15.242;2022-07-29T02:02:43;8.00;;;2.60;;
69334;SDS011;56477;52.742;15.242;2022-07-29T02:05:12;4.72;;;2.10;;
69334;SDS011;56477;52.742;15.242;2022-07-29T02:07:40;5.77;;;2.37;;
69334;SDS011;56477;52.742;15.242;2022-07-29T02:10:08;7.93;;;2.83;;
69334;SDS011;56477;52.742;15.242;2022-07-29T02:12:36;5.93;;;3.15;;
69334;SDS011;56477;52.742;15.242;2022-07-29T02:15:03;5.03;;;2.42;;
69334;SDS011;56477;52.742;15.242;2022-07-29T02:17:32;8.13;;;2.80;;
69334;SDS011;56477;52.742;15.242;2022-07-29T02:20:02;6.27;;;2.97;;
69334;SDS011;56477;52.742;15.242;2022-07-29T02:22:30;8.23;;;3.05;;
69334;SDS011;56477;52.742;15.242;2022-07-29T02:24:59;8.38;;;2.80;;
69334;SDS011;56477;52.742;15.242;2022-07-29T02:27:26;7.35;;;2.97;;
69334;SDS011;56477;52.742;15.242;2022-07-29T02:29:53;5.97;;;2.95;;
69334;SDS011;56477;52.742;15.242;2022-07-29T02:32:23;8.27;;;3.00;;
69334;SDS011;56477;52.742;15.242;2022-07-29T02:34:52;5.95;;;3.03;;
69334;SDS011;56477;52.742;15.242;2022-07-29T02:37:19;7.00;;;3.38;;
69334;SDS011;56477;52.742;15.242;2022-07-29T02:39:45;6.05;;;2.63;;
69334;SDS011;56477;52.742;15.242;2022-07-29T02:42:13;5.43;;;2.85;;
69334;SDS011;56477;52.742;15.242;2022-07-29T02:44:41;7.07;;;2.90;;
69334;SDS011;56477;52.742;15.242;2022-07-29T02:47:24;7.05;;;2.40;;
69334;SDS011;56477;52.742;15.242;2022-07-29T02:53:01;8.45;;;3.00;;
69334;SDS011;56477;52.742;15.242;2022-07-29T02:55:34;7.25;;;2.72;;
69334;SDS011;56477;52.742;15.242;2022-07-29T03:00:37;8.68;;;3.25;;
69334;SDS011;56477;52.742;15.242;2022-07-29T03:03:07;7.43;;;2.72;;
69334;SDS011;56477;52.742;15.242;2022-07-29T03:05:36;7.60;;;2.63;;
69334;SDS011;56477;52.742;15.242;2022-07-29T03:08:04;10.40;;;3.00;;
69334;SDS011;56477;52.742;15.242;2022-07-29T03:10:32;7.40;;;2.73;;
69334;SDS011;56477;52.742;15.242;2022-07-29T03:12:59;7.55;;;3.22;;
69334;SDS011;56477;52.742;15.242;2022-07-29T03:15:26;7.07;;;3.25;;
69334;SDS011;56477;52.742;15.242;2022-07-29T03:17:52;10.73;;;3.10;;
69334;SDS011;56477;52.742;15.242;2022-07-29T03:20:19;5.80;;;2.92;;
69334;SDS011;56477;52.742;15.242;2022-07-29T03:22:45;8.80;;;3.93;;
69334;SDS011;56477;52.742;15.242;2022-07-29T03:25:15;7.60;;;2.90;;
69334;SDS011;56477;52.742;15.242;2022-07-29T03:27:43;7.10;;;2.55;;
69334;SDS011;56477;52.742;15.242;2022-07-29T03:30:10;9.10;;;3.13;;
69334;SDS011;56477;52.742;15.242;2022-07-29T03:32:37;7.38;;;2.97;;
69334;SDS011;56477;52.742;15.242;2022-07-29T03:35:04;7.73;;;2.67;;
69334;SDS011;56477;52.742;15.242;2022-07-29T03:37:31;4.75;;;2.88;;
69334;SDS011;56477;52.742;15.242;2022-07-29T03:39:58;6.43;;;2.70;;
69334;SDS011;56477;52.742;15.242;2022-07-29T03:42:27;8.52;;;3.38;;
69334;SDS011;56477;52.742;15.242;2022-07-29T03:44:55;9.60;;;3.08;;
69334;SDS011;56477;52.742;15.242;2022-07-29T03:47:25;10.93;;;3.00;;
69334;SDS011;56477;52.742;15.242;2022-07-29T03:49:56;7.50;;;3.15;;
69334;SDS011;56477;52.742;15.242;2022-07-29T03:52:26;10.75;;;3.25;;
69334;SDS011;56477;52.742;15.242;2022-07-29T03:54:52;12.02;;;2.95;;
69334;SDS011;56477;52.742;15.242;2022-07-29T03:57:18;5.30;;;2.70;;
69334;SDS011;56477;52.742;15.242;2022-07-29T03:59:49;6.15;;;3.15;;
69334;SDS011;56477;52.742;15.242;2022-07-29T04:02:16;10.30;;;3.28;;
69334;SDS011;56477;52.742;15.242;2022-07-29T04:04:43;7.28;;;3.40;;
69334;SDS011;56477;52.742;15.242;2022-07-29T04:07:12;9.32;;;3.35;;
69334;SDS011;56477;52.742;15.242;2022-07-29T04:09:39;8.90;;;3.20;;
69334;SDS011;56477;52.742;15.242;2022-07-29T04:12:05;8.25;;;3.55;;
69334;SDS011;56477;52.742;15.242;2022-07-29T04:14:32;7.32;;;2.75;;
69334;SDS011;56477;52.742;15.242;2022-07-29T04:16:59;9.15;;;3.38;;
69334;SDS011;56477;52.742;15.242;2022-07-29T04:19:26;6.32;;;3.10;;
69334;SDS011;56477;52.742;15.242;2022-07-29T04:21:52;7.43;;;3.10;;
69334;SDS011;56477;52.742;15.242;2022-07-29T04:24:18;9.50;;;3.65;;
69334;SDS011;56477;52.742;15.242;2022-07-29T04:26:45;8.80;;;3.22;;
69334;SDS011;56477;52.742;15.242;2022-07-29T04:29:11;11.45;;;3.50;;
69334;SDS011;56477;52.742;15.242;2022-07-29T04:31:39;9.53;;;3.37;;
69334;SDS011;56477;52.742;15.242;2022-07-29T04:34:08;7.93;;;3.42;;
69334;SDS011;56477;52.742;15.242;2022-07-29T04:36:35;8.27;;;3.30;;
69334;SDS011;56477;52.742;15.242;2022-07-29T04:39:01;13.00;;;4.03;;
69334;SDS011;56477;52.742;15.242;2022-07-29T04:41:28;9.05;;;3.55;;
69334;SDS011;56477;52.742;15.242;2022-07-29T04:43:54;6.63;;;3.50;;
69334;SDS011;56477;52.742;15.242;2022-07-29T04:46:20;10.30;;;3.45;;
69334;SDS011;56477;52.742;15.242;2022-07-29T04:48:46;9.20;;;3.30;;
69334;SDS011;56477;52.742;15.242;2022-07-29T04:51:13;9.50;;;3.20;;
69334;SDS011;56477;52.742;15.242;2022-07-29T04:53:40;10.32;;;3.40;;
69334;SDS011;56477;52.742;15.242;2022-07-29T04:56:06;10.37;;;3.20;;
69334;SDS011;56477;52.742;15.242;2022-07-29T04:58:35;8.52;;;3.25;;
69334;SDS011;56477;52.742;15.242;2022-07-29T05:01:01;9.13;;;3.33;;
69334;SDS011;56477;52.742;15.242;2022-07-29T05:03:27;9.40;;;2.92;;
69334;SDS011;56477;52.742;15.242;2022-07-29T05:05:54;7.63;;;3.83;;
69334;SDS011;56477;52.742;15.242;2022-07-29T05:08:20;10.77;;;3.40;;
69334;SDS011;56477;52.742;15.242;2022-07-29T05:10:45;7.50;;;3.10;;
69334;SDS011;56477;52.742;15.242;2022-07-29T05:13:11;8.35;;;3.25;;
69334;SDS011;56477;52.742;15.242;2022-07-29T05:15:37;9.50;;;2.77;;
69334;SDS011;56477;52.742;15.242;2022-07-29T05:18:04;7.97;;;3.30;;
69334;SDS011;56477;52.742;15.242;2022-07-29T05:20:30;8.07;;;3.05;;
69334;SDS011;56477;52.742;15.242;2022-07-29T05:22:57;7.72;;;3.58;;
69334;SDS011;56477;52.742;15.242;2022-07-29T05:25:24;7.15;;;2.55;;
69334;SDS011;56477;52.742;15.242;2022-07-29T05:27:51;4.80;;;2.33;;
69334;SDS011;56477;52.742;15.242;2022-07-29T05:30:17;6.07;;;2.83;;
69334;SDS011;56477;52.742;15.242;2022-07-29T05:32:43;8.65;;;2.78;;
69334;SDS011;56477;52.742;15.242;2022-07-29T05:35:09;9.05;;;2.80;;
69334;SDS011;56477;52.742;15.242;2022-07-29T05:37:35;8.43;;;3.00;;
69334;SDS011;56477;52.742;15.242;2022-07-29T05:40:02;8.43;;;3.30;;
69334;SDS011;56477;52.742;15.242;2022-07-29T05:42:28;8.43;;;2.55;;
69334;SDS011;56477;52.742;15.242;2022-07-29T05:44:54;8.10;;;2.88;;
69334;SDS011;56477;52.742;15.242;2022-07-29T05:47:20;12.97;;;2.83;;
69334;SDS011;56477;52.742;15.242;2022-07-29T05:49:47;6.33;;;2.70;;
69334;SDS011;56477;52.742;15.242;2022-07-29T05:52:13;6.90;;;2.65;;
69334;SDS011;56477;52.742;15.242;2022-07-29T05:54:39;9.98;;;2.72;;
69334;SDS011;56477;52.742;15.242;2022-07-29T05:57:05;5.38;;;2.53;;
69334;SDS011;56477;52.742;15.242;2022-07-29T05:59:31;9.00;;;2.43;;
69334;SDS011;56477;52.742;15.242;2022-07-29T06:02:01;7.47;;;2.60;;
69334;SDS011;56477;52.742;15.242;2022-07-29T06:04:27;6.70;;;2.47;;
69334;SDS011;56477;52.742;15.242;2022-07-29T06:06:53;6.60;;;2.60;;
69334;SDS011;56477;52.742;15.242;2022-07-29T06:09:19;6.82;;;2.75;;
69334;SDS011;56477;52.742;15.242;2022-07-29T06:11:45;6.18;;;2.58;;
69334;SDS011;56477;52.742;15.242;2022-07-29T06:14:11;8.20;;;3.60;;
69334;SDS011;56477;52.742;15.242;2022-07-29T06:16:37;27.47;;;3.53;;
69334;SDS011;56477;52.742;15.242;2022-07-29T06:19:03;12.63;;;3.17;;
69334;SDS011;56477;52.742;15.242;2022-07-29T06:21:29;6.18;;;2.47;;
69334;SDS011;56477;52.742;15.242;2022-07-29T06:23:55;5.90;;;2.57;;
69334;SDS011;56477;52.742;15.242;2022-07-29T06:26:21;8.73;;;3.03;;
69334;SDS011;56477;52.742;15.242;2022-07-29T06:28:48;7.22;;;2.88;;
69334;SDS011;56477;52.742;15.242;2022-07-29T06:31:14;8.68;;;2.80;;
69334;SDS011;56477;52.742;15.242;2022-07-29T06:33:40;7.13;;;2.67;;
69334;SDS011;56477;52.742;15.242;2022-07-29T06:36:06;6.13;;;2.93;;
69334;SDS011;56477;52.742;15.242;2022-07-29T06:38:32;11.85;;;3.13;;
69334;SDS011;56477;52.742;15.242;2022-07-29T06:40:59;7.97;;;2.70;;
69334;SDS011;56477;52.742;15.242;2022-07-29T06:43:35;6.47;;;2.38;;
69334;SDS011;56477;52.742;15.242;2022-07-29T06:46:08;8.93;;;3.13;;
69334;SDS011;56477;52.742;15.242;2022-07-29T06:48:41;7.50;;;3.00;;
69334;SDS011;56477;52.742;15.242;2022-07-29T06:51:09;5.97;;;3.17;;
69334;SDS011;56477;52.742;15.242;2022-07-29T06:53:36;4.65;;;2.35;;
69334;SDS011;56477;52.742;15.242;2022-07-29T06:56:04;8.65;;;2.47;;
69334;SDS011;56477;52.742;15.242;2022-07-29T06:58:31;7.47;;;2.57;;
69334;SDS011;56477;52.742;15.242;2022-07-29T07:00:58;5.97;;;2.58;;
69334;SDS011;56477;52.742;15.242;2022-07-29T07:03:26;7.72;;;2.78;;
69334;SDS011;56477;52.742;15.242;2022-07-29T07:05:53;6.03;;;2.50;;
69334;SDS011;56477;52.742;15.242;2022-07-29T07:08:20;5.97;;;2.35;;
69334;SDS011;56477;52.742;15.242;2022-07-29T07:10:47;6.67;;;3.10;;
69334;SDS011;56477;52.742;15.242;2022-07-29T07:13:14;5.03;;;2.63;;
69334;SDS011;56477;52.742;15.242;2022-07-29T07:15:40;5.90;;;2.78;;
69334;SDS011;56477;52.742;15.242;2022-07-29T07:18:06;6.85;;;2.35;;
69334;SDS011;56477;52.742;15.242;2022-07-29T07:20:33;6.03;;;2.30;;
69334;SDS011;56477;52.742;15.242;2022-07-29T07:22:59;8.87;;;2.47;;
69334;SDS011;56477;52.742;15.242;2022-07-29T07:25:25;5.55;;;2.53;;
69334;SDS011;56477;52.742;15.242;2022-07-29T07:27:51;6.90;;;2.42;;
69334;SDS011;56477;52.742;15.242;2022-07-29T07:30:17;5.38;;;2.42;;
69334;SDS011;56477;52.742;15.242;2022-07-29T07:32:43;5.23;;;2.30;;
69334;SDS011;56477;52.742;15.242;2022-07-29T07:35:09;5.65;;;2.50;;
69334;SDS011;56477;52.742;15.242;2022-07-29T07:37:36;6.75;;;2.42;;
69334;SDS011;56477;52.742;15.242;2022-07-29T07:40:03;4.78;;;2.15;;
69334;SDS011;56477;52.742;15.242;2022-07-29T07:42:30;7.00;;;2.60;;
69334;SDS011;56477;52.742;15.242;2022-07-29T07:44:55;4.77;;;2.30;;
69334;SDS011;56477;52.742;15.242;2022-07-29T07:47:21;6.78;;;2.40;;
69334;SDS011;56477;52.742;15.242;2022-07-29T07:49:49;6.13;;;2.30;;
69334;SDS011;56477;52.742;15.242;2022-07-29T07:52:16;3.97;;;2.53;;
69334;SDS011;56477;52.742;15.242;2022-07-29T07:54:43;5.73;;;2.70;;
69334;SDS011;56477;52.742;15.242;2022-07-29T07:57:13;7.10;;;2.45;;
69334;SDS011;56477;52.742;15.242;2022-07-29T07:59:39;3.92;;;2.45;;
69334;SDS011;56477;52.742;15.242;2022-07-29T08:02:05;4.63;;;2.05;;
69334;SDS011;56477;52.742;15.242;2022-07-29T08:04:32;5.57;;;3.17;;
69334;SDS011;56477;52.742;15.242;2022-07-29T08:06:58;4.70;;;2.07;;
69334;SDS011;56477;52.742;15.242;2022-07-29T08:09:25;3.78;;;2.10;;
69334;SDS011;56477;52.742;15.242;2022-07-29T08:11:52;5.82;;;2.90;;
69334;SDS011;56477;52.742;15.242;2022-07-29T08:14:19;5.57;;;2.67;;
69334;SDS011;56477;52.742;15.242;2022-07-29T08:16:45;5.93;;;2.65;;
69334;SDS011;56477;52.742;15.242;2022-07-29T08:19:11;5.73;;;2.87;;
69334;SDS011;56477;52.742;15.242;2022-07-29T08:21:37;7.33;;;2.63;;
69334;SDS011;56477;52.742;15.242;2022-07-29T08:24:03;12.48;;;2.22;;
69334;SDS011;56477;52.742;15.242;2022-07-29T08:26:48;7.68;;;2.42;;
69334;SDS011;56477;52.742;15.242;2022-07-29T08:29:14;5.60;;;2.10;;
69334;SDS011;56477;52.742;15.242;2022-07-29T08:31:41;7.97;;;3.45;;
69334;SDS011;56477;52.742;15.242;2022-07-29T08:34:07;5.90;;;2.20;;
69334;SDS011;56477;52.742;15.242;2022-07-29T08:36:33;6.45;;;1.70;;
69334;SDS011;56477;52.742;15.242;2022-07-29T08:39:00;5.75;;;2.22;;
69334;SDS011;56477;52.742;15.242;2022-07-29T08:41:27;5.03;;;1.83;;
69334;SDS011;56477;52.742;15.242;2022-07-29T08:43:52;6.50;;;1.90;;
69334;SDS011;56477;52.742;15.242;2022-07-29T08:46:19;6.53;;;2.00;;
69334;SDS011;56477;52.742;15.242;2022-07-29T08:48:46;4.25;;;2.35;;
69334;SDS011;56477;52.742;15.242;2022-07-29T08:51:13;3.55;;;2.50;;
69334;SDS011;56477;52.742;15.242;2022-07-29T08:53:44;4.20;;;1.77;;
69334;SDS011;56477;52.742;15.242;2022-07-29T08:56:13;3.57;;;1.87;;
69334;SDS011;56477;52.742;15.242;2022-07-29T08:58:39;5.57;;;2.03;;
69334;SDS011;56477;52.742;15.242;2022-07-29T09:01:06;5.57;;;2.15;;
69334;SDS011;56477;52.742;15.242;2022-07-29T09:03:34;4.60;;;1.80;;
69334;SDS011;56477;52.742;15.242;2022-07-29T09:06:02;6.45;;;1.98;;
69334;SDS011;56477;52.742;15.242;2022-07-29T09:08:30;4.07;;;1.80;;
69334;SDS011;56477;52.742;15.242;2022-07-29T09:10:57;5.33;;;1.97;;
69334;SDS011;56477;52.742;15.242;2022-07-29T09:13:23;2.80;;;1.70;;
69334;SDS011;56477;52.742;15.242;2022-07-29T09:15:50;3.53;;;1.80;;
69334;SDS011;56477;52.742;15.242;2022-07-29T09:18:35;3.55;;;1.55;;
69334;SDS011;56477;52.742;15.242;2022-07-29T09:21:07;7.07;;;2.00;;
69334;SDS011;56477;52.742;15.242;2022-07-29T09:24:03;4.60;;;1.50;;
69334;SDS011;56477;52.742;15.242;2022-07-29T09:26:33;3.73;;;1.80;;
69334;SDS011;56477;52.742;15.242;2022-07-29T09:29:07;5.22;;;2.10;;
69334;SDS011;56477;52.742;15.242;2022-07-29T09:31:38;3.70;;;1.63;;
69334;SDS011;56477;52.742;15.242;2022-07-29T09:34:06;4.07;;;1.73;;
69334;SDS011;56477;52.742;15.242;2022-07-29T09:36:40;6.22;;;1.77;;
69334;SDS011;56477;52.742;15.242;2022-07-29T09:39:07;5.43;;;2.10;;
69334;SDS011;56477;52.742;15.242;2022-07-29T09:41:46;5.30;;;1.33;;
69334;SDS011;56477;52.742;15.242;2022-07-29T09:44:18;4.80;;;1.83;;
69334;SDS011;56477;52.742;15.242;2022-07-29T09:47:01;5.03;;;1.80;;
69334;SDS011;56477;52.742;15.242;2022-07-29T09:49:35;5.88;;;1.80;;
69334;SDS011;56477;52.742;15.242;2022-07-29T09:52:14;6.30;;;1.85;;
69334;SDS011;56477;52.742;15.242;2022-07-29T09:54:40;6.80;;;1.87;;
69334;SDS011;56477;52.742;15.242;2022-07-29T09:57:21;5.03;;;1.90;;
69334;SDS011;56477;52.742;15.242;2022-07-29T10:00:01;3.85;;;2.20;;
69334;SDS011;56477;52.742;15.242;2022-07-29T10:02:32;3.28;;;1.35;;
69334;SDS011;56477;52.742;15.242;2022-07-29T10:05:00;5.32;;;2.40;;
69334;SDS011;56477;52.742;15.242;2022-07-29T10:10:22;4.23;;;1.83;;
69334;SDS011;56477;52.742;15.242;2022-07-29T10:12:57;5.10;;;1.58;;
69334;SDS011;56477;52.742;15.242;2022-07-29T10:15:26;7.40;;;1.90;;
69334;SDS011;56477;52.742;15.242;2022-07-29T10:17:55;8.60;;;2.42;;
69334;SDS011;56477;52.742;15.242;2022-07-29T10:20:22;4.93;;;2.03;;
69334;SDS011;56477;52.742;15.242;2022-07-29T10:22:49;5.67;;;1.60;;
69334;SDS011;56477;52.742;15.242;2022-07-29T10:25:15;8.47;;;2.03;;
69334;SDS011;56477;52.742;15.242;2022-07-29T10:27:43;3.83;;;1.40;;
69334;SDS011;56477;52.742;15.242;2022-07-29T10:30:13;4.80;;;2.35;;
69334;SDS011;56477;52.742;15.242;2022-07-29T10:38:47;5.37;;;1.90;;
69334;SDS011;56477;52.742;15.242;2022-07-29T10:44:35;5.78;;;1.50;;
69334;SDS011;56477;52.742;15.242;2022-07-29T10:47:06;3.08;;;1.50;;
69334;SDS011;56477;52.742;15.242;2022-07-29T10:49:32;3.65;;;1.70;;
69334;SDS011;56477;52.742;15.242;2022-07-29T10:52:05;3.55;;;1.67;;
69334;SDS011;56477;52.742;15.242;2022-07-29T11:05:02;6.03;;;2.17;;
69334;SDS011;56477;52.742;15.242;2022-07-29T11:07:29;5.50;;;1.65;;
69334;SDS011;56477;52.742;15.242;2022-07-29T11:15:16;5.60;;;1.83;;
69334;SDS011;56477;52.742;15.242;2022-07-29T11:23:48;3.63;;;1.77;;
69334;SDS011;56477;52.742;15.242;2022-07-29T11:29:23;4.90;;;1.83;;
69334;SDS011;56477;52.742;15.242;2022-07-29T11:31:46;4.95;;;1.70;;
69334;SDS011;56477;52.742;15.242;2022-07-29T11:34:31;3.92;;;1.60;;
69334;SDS011;56477;52.742;15.242;2022-07-29T11:39:37;6.40;;;1.70;;
69334;SDS011;56477;52.742;15.242;2022-07-29T11:47:22;4.43;;;1.95;;
69334;SDS011;56477;52.742;15.242;2022-07-29T11:49:48;7.57;;;2.03;;
69334;SDS011;56477;52.742;15.242;2022-07-29T11:52:17;4.97;;;1.80;;
69334;SDS011;56477;52.742;15.242;2022-07-29T12:02:53;6.38;;;2.03;;
69334;SDS011;56477;52.742;15.242;2022-07-29T12:05:20;3.88;;;1.65;;
69334;SDS011;56477;52.742;15.242;2022-07-29T12:07:58;4.47;;;1.60;;
69334;SDS011;56477;52.742;15.242;2022-07-29T12:10:33;6.07;;;1.67;;
69334;SDS011;56477;52.742;15.242;2022-07-29T12:12:59;4.63;;;1.93;;
69334;SDS011;56477;52.742;15.242;2022-07-29T12:15:25;3.83;;;1.60;;
69334;SDS011;56477;52.742;15.242;2022-07-29T12:17:51;6.75;;;1.75;;
69334;SDS011;56477;52.742;15.242;2022-07-29T12:20:25;5.18;;;2.13;;
69334;SDS011;56477;52.742;15.242;2022-07-29T12:22:52;6.78;;;2.20;;
69334;SDS011;56477;52.742;15.242;2022-07-29T12:25:20;4.10;;;1.92;;
69334;SDS011;56477;52.742;15.242;2022-07-29T12:27:47;4.50;;;2.30;;
69334;SDS011;56477;52.742;15.242;2022-07-29T12:30:23;4.07;;;2.13;;
69334;SDS011;56477;52.742;15.242;2022-07-29T12:33:00;3.20;;;2.00;;
69334;SDS011;56477;52.742;15.242;2022-07-29T12:35:26;4.10;;;2.05;;
69334;SDS011;56477;52.742;15.242;2022-07-29T12:37:52;5.07;;;2.50;;
69334;SDS011;56477;52.742;15.242;2022-07-29T12:40:20;4.57;;;2.05;;
69334;SDS011;56477;52.742;15.242;2022-07-29T12:43:06;4.40;;;1.90;;
69334;SDS011;56477;52.742;15.242;2022-07-29T12:45:36;3.63;;;1.90;;
69334;SDS011;56477;52.742;15.242;2022-07-29T12:48:04;4.28;;;2.65;;
69334;SDS011;56477;52.742;15.242;2022-07-29T12:50:33;2.78;;;1.92;;
69334;SDS011;56477;52.742;15.242;2022-07-29T12:53:11;3.97;;;1.90;;
69334;SDS011;56477;52.742;15.242;2022-07-29T12:55:39;7.23;;;2.17;;
69334;SDS011;56477;52.742;15.242;2022-07-29T13:01:05;5.40;;;1.98;;
69334;SDS011;56477;52.742;15.242;2022-07-29T13:03:43;6.93;;;2.58;;
69334;SDS011;56477;52.742;15.242;2022-07-29T13:09:00;4.20;;;2.13;;
69334;SDS011;56477;52.742;15.242;2022-07-29T13:11:31;5.75;;;2.17;;
69334;SDS011;56477;52.742;15.242;2022-07-29T13:14:08;3.35;;;2.05;;
69334;SDS011;56477;52.742;15.242;2022-07-29T13:16:36;4.68;;;1.73;;
69334;SDS011;56477;52.742;15.242;2022-07-29T13:19:31;4.37;;;1.77;;
69334;SDS011;56477;52.742;15.242;2022-07-29T13:22:00;10.57;;;2.80;;
69334;SDS011;56477;52.742;15.242;2022-07-29T13:24:26;6.50;;;2.50;;
69334;SDS011;56477;52.742;15.242;2022-07-29T13:26:52;8.75;;;2.53;;
69334;SDS011;56477;52.742;15.242;2022-07-29T13:29:18;4.75;;;2.00;;
69334;SDS011;56477;52.742;15.242;2022-07-29T13:31:44;3.50;;;2.13;;
69334;SDS011;56477;52.742;15.242;2022-07-29T13:34:10;8.20;;;2.47;;
69334;SDS011;56477;52.742;15.242;2022-07-29T13:36:36;5.80;;;2.30;;
69334;SDS011;56477;52.742;15.242;2022-07-29T13:39:02;5.82;;;1.70;;
69334;SDS011;56477;52.742;15.242;2022-07-29T13:41:28;5.50;;;2.30;;
69334;SDS011;56477;52.742;15.242;2022-07-29T13:43:55;8.40;;;2.90;;
69334;SDS011;56477;52.742;15.242;2022-07-29T13:46:21;4.15;;;1.95;;
69334;SDS011;56477;52.742;15.242;2022-07-29T13:48:46;5.55;;;2.38;;
69334;SDS011;56477;52.742;15.242;2022-07-29T13:51:12;3.87;;;2.03;;
69334;SDS011;56477;52.742;15.242;2022-07-29T13:53:38;4.70;;;2.30;;
69334;SDS011;56477;52.742;15.242;2022-07-29T13:56:04;6.45;;;2.42;;
69334;SDS011;56477;52.742;15.242;2022-07-29T13:58:32;3.40;;;1.70;;
69334;SDS011;56477;52.742;15.242;2022-07-29T14:00:58;8.52;;;2.30;;
69334;SDS011;56477;52.742;15.242;2022-07-29T14:03:24;8.27;;;2.10;;
69334;SDS011;56477;52.742;15.242;2022-07-29T14:05:50;22.98;;;3.85;;
69334;SDS011;56477;52.742;15.242;2022-07-29T14:08:16;5.47;;;1.90;;
69334;SDS011;56477;52.742;15.242;2022-07-29T14:10:43;5.30;;;2.37;;
69334;SDS011;56477;52.742;15.242;2022-07-29T14:13:09;3.80;;;1.60;;
69334;SDS011;56477;52.742;15.242;2022-07-29T14:15:35;5.38;;;2.25;;
69334;SDS011;56477;52.742;15.242;2022-07-29T14:18:01;4.18;;;1.95;;
69334;SDS011;56477;52.742;15.242;2022-07-29T14:20:27;4.13;;;1.70;;
69334;SDS011;56477;52.742;15.242;2022-07-29T14:22:56;2.57;;;1.77;;
69334;SDS011;56477;52.742;15.242;2022-07-29T14:25:22;3.42;;;1.88;;
69334;SDS011;56477;52.742;15.242;2022-07-29T14:27:49;3.47;;;1.90;;
69334;SDS011;56477;52.742;15.242;2022-07-29T14:30:14;4.45;;;1.58;;
69334;SDS011;56477;52.742;15.242;2022-07-29T14:32:40;3.73;;;2.10;;
69334;SDS011;56477;52.742;15.242;2022-07-29T14:35:07;4.55;;;1.90;;
69334;SDS011;56477;52.742;15.242;2022-07-29T14:37:33;4.53;;;2.03;;
69334;SDS011;56477;52.742;15.242;2022-07-29T14:40:01;6.80;;;3.03;;
69334;SDS011;56477;52.742;15.242;2022-07-29T14:42:29;3.35;;;2.15;;
69334;SDS011;56477;52.742;15.242;2022-07-29T14:44:58;5.97;;;1.85;;
69334;SDS011;56477;52.742;15.242;2022-07-29T14:47:24;4.30;;;1.77;;
69334;SDS011;56477;52.742;15.242;2022-07-29T14:49:50;4.35;;;1.80;;
69334;SDS011;56477;52.742;15.242;2022-07-29T14:52:16;5.65;;;2.13;;
69334;SDS011;56477;52.742;15.242;2022-07-29T14:54:41;4.57;;;1.88;;
69334;SDS011;56477;52.742;15.242;2022-07-29T14:57:07;7.47;;;1.70;;
69334;SDS011;56477;52.742;15.242;2022-07-29T14:59:34;3.40;;;1.90;;
69334;SDS011;56477;52.742;15.242;2022-07-29T15:01:59;5.50;;;2.05;;
69334;SDS011;56477;52.742;15.242;2022-07-29T15:04:25;2.72;;;1.90;;
69334;SDS011;56477;52.742;15.242;2022-07-29T15:06:51;3.60;;;2.10;;
69334;SDS011;56477;52.742;15.242;2022-07-29T15:09:17;4.53;;;1.97;;
69334;SDS011;56477;52.742;15.242;2022-07-29T15:11:43;5.63;;;1.90;;
69334;SDS011;56477;52.742;15.242;2022-07-29T15:14:09;5.05;;;1.60;;
69334;SDS011;56477;52.742;15.242;2022-07-29T15:16:36;6.95;;;1.75;;
69334;SDS011;56477;52.742;15.242;2022-07-29T15:19:04;4.55;;;2.00;;
69334;SDS011;56477;52.742;15.242;2022-07-29T15:21:30;7.33;;;1.60;;
69334;SDS011;56477;52.742;15.242;2022-07-29T15:23:56;3.17;;;1.63;;
69334;SDS011;56477;52.742;15.242;2022-07-29T15:26:22;4.85;;;1.75;;
69334;SDS011;56477;52.742;15.242;2022-07-29T15:28:47;4.95;;;2.20;;
69334;SDS011;56477;52.742;15.242;2022-07-29T15:31:13;5.67;;;1.70;;
69334;SDS011;56477;52.742;15.242;2022-07-29T15:33:39;3.10;;;1.33;;
69334;SDS011;56477;52.742;15.242;2022-07-29T15:36:05;8.77;;;1.90;;
69334;SDS011;56477;52.742;15.242;2022-07-29T15:38:31;5.20;;;2.10;;
69334;SDS011;56477;52.742;15.242;2022-07-29T15:40:58;4.68;;;1.65;;
69334;SDS011;56477;52.742;15.242;2022-07-29T15:43:24;3.30;;;1.83;;
69334;SDS011;56477;52.742;15.242;2022-07-29T15:45:50;4.72;;;2.17;;
69334;SDS011;56477;52.742;15.242;2022-07-29T15:48:37;4.85;;;1.75;;
69334;SDS011;56477;52.742;15.242;2022-07-29T15:51:03;5.00;;;1.98;;
69334;SDS011;56477;52.742;15.242;2022-07-29T15:53:29;4.83;;;1.77;;
69334;SDS011;56477;52.742;15.242;2022-07-29T15:55:55;3.90;;;1.90;;